Zion, Iowa
Current Conditions -  °F | °C
As of 7:35 AM on Monday 24 Nov 2014 (Local Time) from KCSQ Reporting Station
Overcast Overcast  
Wind Chill: 12°   Ceiling: 2200
Heat Index: 27°   Visibility: 10mi
Dew Point: 19°   Wind: 24mph
Humidity: 74%   Direction: 300°WNW
Pressure: 29.55"   Gusts: 32mph
Location:  41.2318°N, 94.3386°W
Report Text: KCSQ 241335Z AUTO 30021G28KT 10SM BKN022 OVC032 M03/M07 A2955 RMK AO2
Loading
Personal Weather Stations






























Interactive Weather Map New forecast layout! Learn more

10-Day Weather Forecast

Advertisements
Track Severe Weather on mobile